sensor_id;sensor_type;location;lat;lon;timestamp;pressure;altitude;pressure_sealevel;temperature;humidity
47761;BME280;33524;55.434;38.520;2023-01-27T00:01:34;100686.25;;;-4.43;92.32
47761;BME280;33524;55.434;38.520;2023-01-27T00:04:02;100684.53;;;-4.38;92.22
47761;BME280;33524;55.434;38.520;2023-01-27T00:06:37;100687.06;;;-4.32;92.10
47761;BME280;33524;55.434;38.520;2023-01-27T00:09:05;100687.13;;;-4.44;92.37
47761;BME280;33524;55.434;38.520;2023-01-27T00:11:33;100681.09;;;-4.37;92.66
47761;BME280;33524;55.434;38.520;2023-01-27T00:14:20;100683.72;;;-4.46;92.68
47761;BME280;33524;55.434;38.520;2023-01-27T00:16:51;100683.66;;;-4.37;92.64
47761;BME280;33524;55.434;38.520;2023-01-27T00:19:19;100675.09;;;-4.39;92.20
47761;BME280;33524;55.434;38.520;2023-01-27T00:21:47;100684.44;;;-4.29;92.21
47761;BME280;33524;55.434;38.520;2023-01-27T00:24:34;100683.59;;;-4.31;92.09
47761;BME280;33524;55.434;38.520;2023-01-27T00:27:07;100691.97;;;-4.01;91.73
47761;BME280;33524;55.434;38.520;2023-01-27T00:29:38;100688.63;;;-4.11;91.72
47761;BME280;33524;55.434;38.520;2023-01-27T00:32:09;100688.75;;;-4.29;91.63
47761;BME280;33524;55.434;38.520;2023-01-27T00:34:56;100693.81;;;-4.20;91.79
47761;BME280;33524;55.434;38.520;2023-01-27T00:37:24;100685.13;;;-4.02;91.35
47761;BME280;33524;55.434;38.520;2023-01-27T00:39:52;100700.66;;;-4.20;91.64
47761;BME280;33524;55.434;38.520;2023-01-27T00:42:20;100695.69;;;-4.42;92.12
47761;BME280;33524;55.434;38.520;2023-01-27T00:44:48;100690.59;;;-4.48;92.72
47761;BME280;33524;55.434;38.520;2023-01-27T00:47:35;100692.16;;;-4.26;92.57
47761;BME280;33524;55.434;38.520;2023-01-27T00:50:06;100686.22;;;-4.35;92.08
47761;BME280;33524;55.434;38.520;2023-01-27T00:52:34;100689.88;;;-4.73;93.06
47761;BME280;33524;55.434;38.520;2023-01-27T00:55:03;100676.91;;;-4.50;92.91
47761;BME280;33524;55.434;38.520;2023-01-27T00:57:31;100683.03;;;-4.79;93.42
47761;BME280;33524;55.434;38.520;2023-01-27T00:59:59;100680.44;;;-4.76;94.00
47761;BME280;33524;55.434;38.520;2023-01-27T01:02:29;100670.13;;;-4.63;93.38
47761;BME280;33524;55.434;38.520;2023-01-27T01:04:57;100667.56;;;-4.60;93.36
47761;BME280;33524;55.434;38.520;2023-01-27T01:07:29;100664.03;;;-4.49;93.02
47761;BME280;33524;55.434;38.520;2023-01-27T01:09:58;100669.34;;;-4.76;93.70
47761;BME280;33524;55.434;38.520;2023-01-27T01:12:26;100661.53;;;-4.59;93.49
47761;BME280;33524;55.434;38.520;2023-01-27T01:14:54;100674.44;;;-4.67;93.87
47761;BME280;33524;55.434;38.520;2023-01-27T01:17:23;100669.31;;;-4.69;94.05
47761;BME280;33524;55.434;38.520;2023-01-27T01:19:50;100664.25;;;-4.84;94.31
47761;BME280;33524;55.434;38.520;2023-01-27T01:22:18;100661.72;;;-4.96;94.67
47761;BME280;33524;55.434;38.520;2023-01-27T01:24:50;100660.72;;;-4.66;94.50
47761;BME280;33524;55.434;38.520;2023-01-27T01:27:21;100658.13;;;-4.58;93.97
47761;BME280;33524;55.434;38.520;2023-01-27T01:29:49;100666.78;;;-4.73;94.18
47761;BME280;33524;55.434;38.520;2023-01-27T01:32:17;100674.34;;;-4.55;94.01
47761;BME280;33524;55.434;38.520;2023-01-27T01:34:48;100668.34;;;-4.57;93.37
47761;BME280;33524;55.434;38.520;2023-01-27T01:37:16;100671.84;;;-4.62;93.60
47761;BME280;33524;55.434;38.520;2023-01-27T01:39:44;100668.31;;;-4.46;93.62
47761;BME280;33524;55.434;38.520;2023-01-27T01:42:12;100673.53;;;-4.61;93.38
47761;BME280;33524;55.434;38.520;2023-01-27T01:44:44;100671.84;;;-4.64;93.59
47761;BME280;33524;55.434;38.520;2023-01-27T01:47:16;100668.41;;;-4.58;93.45
47761;BME280;33524;55.434;38.520;2023-01-27T01:49:46;100665.94;;;-4.75;93.62
47761;BME280;33524;55.434;38.520;2023-01-27T01:52:19;100671.75;;;-4.50;93.43
47761;BME280;33524;55.434;38.520;2023-01-27T01:54:55;100667.47;;;-4.53;92.30
47761;BME280;33524;55.434;38.520;2023-01-27T01:57:29;100671.88;;;-4.69;93.04
47761;BME280;33524;55.434;38.520;2023-01-27T02:00:03;100679.56;;;-4.70;93.32
47761;BME280;33524;55.434;38.520;2023-01-27T02:02:40;100668.34;;;-4.54;92.42
47761;BME280;33524;55.434;38.520;2023-01-27T02:05:23;100661.50;;;-4.55;92.94
47761;BME280;33524;55.434;38.520;2023-01-27T02:08:01;100661.59;;;-4.67;93.02
47761;BME280;33524;55.434;38.520;2023-01-27T02:10:32;100665.84;;;-4.63;92.22
47761;BME280;33524;55.434;38.520;2023-01-27T02:13:01;100669.19;;;-4.52;92.59
47761;BME280;33524;55.434;38.520;2023-01-27T02:15:29;100667.44;;;-4.43;92.41
47761;BME280;33524;55.434;38.520;2023-01-27T02:18:03;100662.34;;;-4.53;92.15
47761;BME280;33524;55.434;38.520;2023-01-27T02:20:44;100664.91;;;-4.48;91.99
47761;BME280;33524;55.434;38.520;2023-01-27T02:26:41;100653.84;;;-4.58;91.91
47761;BME280;33524;55.434;38.520;2023-01-27T02:29:14;100647.91;;;-4.64;92.26
47761;BME280;33524;55.434;38.520;2023-01-27T02:31:42;100650.44;;;-4.61;91.66
47761;BME280;33524;55.434;38.520;2023-01-27T02:34:18;100652.84;;;-4.37;92.14
47761;BME280;33524;55.434;38.520;2023-01-27T02:36:54;100653.75;;;-4.49;91.65
47761;BME280;33524;55.434;38.520;2023-01-27T02:39:27;100642.59;;;-4.43;92.30
47761;BME280;33524;55.434;38.520;2023-01-27T02:41:58;100642.59;;;-4.43;92.05
47761;BME280;33524;55.434;38.520;2023-01-27T02:44:31;100635.00;;;-4.52;91.33
47761;BME280;33524;55.434;38.520;2023-01-27T02:46:59;100629.94;;;-4.63;91.58
47761;BME280;33524;55.434;38.520;2023-01-27T02:49:27;100627.37;;;-4.68;92.02
47761;BME280;33524;55.434;38.520;2023-01-27T02:51:59;100636.81;;;-4.76;91.98
47761;BME280;33524;55.434;38.520;2023-01-27T02:54:28;100634.25;;;-4.71;92.44
47761;BME280;33524;55.434;38.520;2023-01-27T02:57:00;100637.63;;;-4.64;92.10
47761;BME280;33524;55.434;38.520;2023-01-27T02:59:29;100630.69;;;-4.50;92.17
47761;BME280;33524;55.434;38.520;2023-01-27T03:02:00;100640.97;;;-4.53;91.77
47761;BME280;33524;55.434;38.520;2023-01-27T03:04:29;100641.81;;;-4.53;91.77
47761;BME280;33524;55.434;38.520;2023-01-27T03:06:56;100641.00;;;-4.56;91.58
47761;BME280;33524;55.434;38.520;2023-01-27T03:09:26;100640.13;;;-4.54;91.55
47761;BME280;33524;55.434;38.520;2023-01-27T03:11:54;100615.44;;;-4.73;91.44
47761;BME280;33524;55.434;38.520;2023-01-27T03:14:40;100640.19;;;-4.64;91.35
47761;BME280;33524;55.434;38.520;2023-01-27T03:17:29;100640.25;;;-4.72;91.77
47761;BME280;33524;55.434;38.520;2023-01-27T03:20:16;100644.53;;;-4.71;91.64
47761;BME280;33524;55.434;38.520;2023-01-27T03:22:45;100640.22;;;-4.71;91.26
47761;BME280;33524;55.434;38.520;2023-01-27T03:25:16;100644.44;;;-4.60;90.96
47761;BME280;33524;55.434;38.520;2023-01-27T03:27:44;100639.34;;;-4.70;91.15
47761;BME280;33524;55.434;38.520;2023-01-27T03:30:18;100636.78;;;-4.70;91.25
47761;BME280;33524;55.434;38.520;2023-01-27T03:32:47;100641.03;;;-4.62;91.27
47761;BME280;33524;55.434;38.520;2023-01-27T03:35:16;100637.63;;;-4.64;91.45
47761;BME280;33524;55.434;38.520;2023-01-27T03:37:45;100636.75;;;-4.63;90.96
47761;BME280;33524;55.434;38.520;2023-01-27T03:40:33;100636.78;;;-4.68;90.84
47761;BME280;33524;55.434;38.520;2023-01-27T03:43:20;100612.84;;;-4.67;90.27
47761;BME280;33524;55.434;38.520;2023-01-27T03:46:07;100623.91;;;-4.62;90.46
47761;BME280;33524;55.434;38.520;2023-01-27T03:48:54;100635.84;;;-4.52;90.44
47761;BME280;33524;55.434;38.520;2023-01-27T03:51:24;100634.19;;;-4.63;90.57
47761;BME280;33524;55.434;38.520;2023-01-27T03:53:53;100636.75;;;-4.62;90.41
47761;BME280;33524;55.434;38.520;2023-01-27T03:56:21;100630.81;;;-4.69;90.25
47761;BME280;33524;55.434;38.520;2023-01-27T03:58:49;100624.06;;;-4.85;90.50
47761;BME280;33524;55.434;38.520;2023-01-27T04:01:19;100630.94;;;-4.93;90.72
47761;BME280;33524;55.434;38.520;2023-01-27T04:03:49;100631.69;;;-4.73;91.27
47761;BME280;33524;55.434;38.520;2023-01-27T04:06:39;100635.16;;;-4.81;90.33
47761;BME280;33524;55.434;38.520;2023-01-27T04:09:32;100625.78;;;-4.90;91.08
47761;BME280;33524;55.434;38.520;2023-01-27T04:12:03;100632.59;;;-4.84;90.71
47761;BME280;33524;55.434;38.520;2023-01-27T04:14:36;100624.09;;;-4.91;90.87
47761;BME280;33524;55.434;38.520;2023-01-27T04:17:08;100629.25;;;-5.00;90.50
47761;BME280;33524;55.434;38.520;2023-01-27T04:19:38;100636.94;;;-4.97;90.92
47761;BME280;33524;55.434;38.520;2023-01-27T04:22:06;100633.47;;;-4.90;91.19
47761;BME280;33524;55.434;38.520;2023-01-27T04:24:34;100637.69;;;-4.78;90.64
47761;BME280;33524;55.434;38.520;2023-01-27T04:27:08;100640.37;;;-4.95;91.09
47761;BME280;33524;55.434;38.520;2023-01-27T04:29:38;100640.31;;;-4.83;90.87
47761;BME280;33524;55.434;38.520;2023-01-27T04:32:11;100644.63;;;-4.91;91.04
47761;BME280;33524;55.434;38.520;2023-01-27T04:34:40;100642.06;;;-4.91;91.40
47761;BME280;33524;55.434;38.520;2023-01-27T04:37:08;100640.34;;;-4.92;91.36
47761;BME280;33524;55.434;38.520;2023-01-27T04:39:37;100639.38;;;-4.73;90.98
47761;BME280;33524;55.434;38.520;2023-01-27T04:42:05;100632.59;;;-4.86;90.64
47761;BME280;33524;55.434;38.520;2023-01-27T04:44:32;100638.59;;;-4.81;91.33
47761;BME280;33524;55.434;38.520;2023-01-27T04:47:01;100642.94;;;-4.94;91.00
47761;BME280;33524;55.434;38.520;2023-01-27T04:49:29;100654.16;;;-5.22;91.64
47761;BME280;33524;55.434;38.520;2023-01-27T04:52:00;100652.34;;;-4.99;91.91
47761;BME280;33524;55.434;38.520;2023-01-27T04:54:31;100646.31;;;-4.90;91.64
47761;BME280;33524;55.434;38.520;2023-01-27T04:57:02;100647.09;;;-4.76;91.23
47761;BME280;33524;55.434;38.520;2023-01-27T04:59:30;100654.88;;;-4.90;91.00
47761;BME280;33524;55.434;38.520;2023-01-27T05:01:58;100656.53;;;-4.81;91.13
47761;BME280;33524;55.434;38.520;2023-01-27T05:04:26;100655.69;;;-4.81;90.82
47761;BME280;33524;55.434;38.520;2023-01-27T05:06:54;100636.84;;;-4.82;90.74
47761;BME280;33524;55.434;38.520;2023-01-27T05:09:22;100658.25;;;-4.83;91.19
47761;BME280;33524;55.434;38.520;2023-01-27T05:11:50;100645.44;;;-4.83;90.56
47761;BME280;33524;55.434;38.520;2023-01-27T05:14:18;100659.88;;;-4.70;90.47
47761;BME280;33524;55.434;38.520;2023-01-27T05:16:46;100661.63;;;-4.78;90.02
47761;BME280;33524;55.434;38.520;2023-01-27T05:19:14;100666.78;;;-4.75;90.64
47761;BME280;33524;55.434;38.520;2023-01-27T05:21:45;100666.78;;;-4.75;90.74
47761;BME280;33524;55.434;38.520;2023-01-27T05:24:13;100645.41;;;-4.78;90.80
47761;BME280;33524;55.434;38.520;2023-01-27T05:26:44;100657.34;;;-4.74;90.74
47761;BME280;33524;55.434;38.520;2023-01-27T05:29:12;100665.06;;;-4.71;90.49
47761;BME280;33524;55.434;38.520;2023-01-27T05:31:43;100648.88;;;-4.89;90.13
47761;BME280;33524;55.434;38.520;2023-01-27T05:34:14;100674.47;;;-4.78;90.83
47761;BME280;33524;55.434;38.520;2023-01-27T05:36:43;100686.47;;;-4.77;91.12
47761;BME280;33524;55.434;38.520;2023-01-27T05:39:11;100676.22;;;-4.84;91.31
47761;BME280;33524;55.434;38.520;2023-01-27T05:41:42;100688.19;;;-4.77;91.21
47761;BME280;33524;55.434;38.520;2023-01-27T05:44:11;100690.69;;;-4.70;91.32
47761;BME280;33524;55.434;38.520;2023-01-27T05:46:40;100687.22;;;-4.59;90.86
47761;BME280;33524;55.434;38.520;2023-01-27T05:49:08;100689.00;;;-4.71;90.75
47761;BME280;33524;55.434;38.520;2023-01-27T05:51:37;100688.94;;;-4.60;91.21
47761;BME280;33524;55.434;38.520;2023-01-27T05:54:07;100679.47;;;-4.50;90.48
47761;BME280;33524;55.434;38.520;2023-01-27T05:56:35;100698.41;;;-4.76;91.15
47761;BME280;33524;55.434;38.520;2023-01-27T05:59:03;100696.56;;;-4.46;91.41
47761;BME280;33524;55.434;38.520;2023-01-27T06:01:33;100702.53;;;-4.44;90.58
47761;BME280;33524;55.434;38.520;2023-01-27T06:04:02;100700.91;;;-4.63;91.56
47761;BME280;33524;55.434;38.520;2023-01-27T06:06:31;100706.94;;;-4.68;92.01
47761;BME280;33524;55.434;38.520;2023-01-27T06:09:00;100703.44;;;-4.56;91.48
47761;BME280;33524;55.434;38.520;2023-01-27T06:11:28;100703.38;;;-4.47;91.41
47761;BME280;33524;55.434;38.520;2023-01-27T06:13:57;100696.56;;;-4.46;91.41
47761;BME280;33524;55.434;38.520;2023-01-27T06:16:25;100692.28;;;-4.44;90.87
47761;BME280;33524;55.434;38.520;2023-01-27T06:18:56;100686.44;;;-4.80;90.98
47761;BME280;33524;55.434;38.520;2023-01-27T06:21:25;100704.31;;;-4.61;91.31
47761;BME280;33524;55.434;38.520;2023-01-27T06:23:53;100706.88;;;-4.52;90.96
47761;BME280;33524;55.434;38.520;2023-01-27T06:26:22;100700.84;;;-4.51;91.39
47761;BME280;33524;55.434;38.520;2023-01-27T06:28:50;100703.34;;;-4.40;90.91
47761;BME280;33524;55.434;38.520;2023-01-27T06:31:20;100701.63;;;-4.35;90.66
47761;BME280;33524;55.434;38.520;2023-01-27T06:33:50;100706.75;;;-4.38;90.44
47761;BME280;33524;55.434;38.520;2023-01-27T06:36:22;100690.44;;;-4.27;90.06
47761;BME280;33524;55.434;38.520;2023-01-27T06:38:51;100707.47;;;-4.16;89.75
47761;BME280;33524;55.434;38.520;2023-01-27T06:41:22;100711.69;;;-4.08;89.57
47761;BME280;33524;55.434;38.520;2023-01-27T06:43:51;100711.78;;;-4.17;89.36
47761;BME280;33524;55.434;38.520;2023-01-27T06:46:20;100710.88;;;-4.11;89.61
47761;BME280;33524;55.434;38.520;2023-01-27T06:48:48;100716.91;;;-4.15;89.29
47761;BME280;33524;55.434;38.520;2023-01-27T06:51:16;100714.31;;;-4.12;89.27
47761;BME280;33524;55.434;38.520;2023-01-27T06:53:46;100712.53;;;-4.04;89.31
47761;BME280;33524;55.434;38.520;2023-01-27T06:56:15;100716.81;;;-4.06;89.48
47761;BME280;33524;55.434;38.520;2023-01-27T06:58:44;100718.47;;;-3.96;88.91
47761;BME280;33524;55.434;38.520;2023-01-27T07:01:14;100724.53;;;-4.06;88.75
47761;BME280;33524;55.434;38.520;2023-01-27T07:03:43;100718.63;;;-4.22;89.04
47761;BME280;33524;55.434;38.520;2023-01-27T07:06:12;100720.19;;;-3.96;89.06
47761;BME280;33524;55.434;38.520;2023-01-27T07:08:45;100716.75;;;-3.94;88.73
47761;BME280;33524;55.434;38.520;2023-01-27T07:11:22;100725.25;;;-3.89;88.46
47761;BME280;33524;55.434;38.520;2023-01-27T07:13:52;100714.91;;;-3.78;88.55
47761;BME280;33524;55.434;38.520;2023-01-27T07:16:21;100714.97;;;-3.87;88.13
47761;BME280;33524;55.434;38.520;2023-01-27T07:18:51;100720.09;;;-3.86;88.17
47761;BME280;33524;55.434;38.520;2023-01-27T07:21:24;100708.28;;;-4.07;88.24
47761;BME280;33524;55.434;38.520;2023-01-27T07:23:53;100709.00;;;-3.91;88.47
47761;BME280;33524;55.434;38.520;2023-01-27T07:26:22;100693.69;;;-4.03;88.41
47761;BME280;33524;55.434;38.520;2023-01-27T07:28:55;100716.69;;;-3.88;88.41
47761;BME280;33524;55.434;38.520;2023-01-27T07:31:24;100708.94;;;-3.85;88.03
47761;BME280;33524;55.434;38.520;2023-01-27T07:33:53;100724.31;;;-3.78;87.96
47761;BME280;33524;55.434;38.520;2023-01-27T07:36:22;100725.19;;;-3.81;88.22
47761;BME280;33524;55.434;38.520;2023-01-27T07:38:50;100728.59;;;-3.79;87.85
47761;BME280;33524;55.434;38.520;2023-01-27T07:41:19;100723.34;;;-3.63;87.84
47761;BME280;33524;55.434;38.520;2023-01-27T07:43:49;100727.59;;;-3.61;87.17
47761;BME280;33524;55.434;38.520;2023-01-27T07:46:35;100725.81;;;-3.53;87.10
47761;BME280;33524;55.434;38.520;2023-01-27T07:49:03;100725.75;;;-3.45;86.84
47761;BME280;33524;55.434;38.520;2023-01-27T07:51:32;100717.31;;;-3.61;86.54
47761;BME280;33524;55.434;38.520;2023-01-27T07:54:01;100718.75;;;-3.32;86.48
47761;BME280;33524;55.434;38.520;2023-01-27T07:56:29;100718.81;;;-3.37;85.94
47761;BME280;33524;55.434;38.520;2023-01-27T07:58:59;100725.53;;;-3.23;85.48
47761;BME280;33524;55.434;38.520;2023-01-27T08:01:29;100713.44;;;-3.18;85.48
47761;BME280;33524;55.434;38.520;2023-01-27T08:04:01;100725.34;;;-3.07;84.80
47761;BME280;33524;55.434;38.520;2023-01-27T08:06:29;100716.13;;;-3.28;85.09
47761;BME280;33524;55.434;38.520;2023-01-27T08:08:59;100720.09;;;-2.97;85.18
47761;BME280;33524;55.434;38.520;2023-01-27T08:11:27;100729.53;;;-2.98;83.98
47761;BME280;33524;55.434;38.520;2023-01-27T08:13:55;100725.91;;;-2.81;83.50
47761;BME280;33524;55.434;38.520;2023-01-27T08:16:23;100720.75;;;-2.81;83.54
47761;BME280;33524;55.434;38.520;2023-01-27T08:18:53;100721.56;;;-2.75;83.24
47761;BME280;33524;55.434;38.520;2023-01-27T08:21:23;100694.50;;;-3.10;83.33
47761;BME280;33524;55.434;38.520;2023-01-27T08:23:53;100718.41;;;-3.00;83.68
47761;BME280;33524;55.434;38.520;2023-01-27T08:26:22;100721.69;;;-2.87;83.72
47761;BME280;33524;55.434;38.520;2023-01-27T08:28:51;100727.72;;;-2.90;83.57
47761;BME280;33524;55.434;38.520;2023-01-27T08:31:21;100731.09;;;-2.85;83.40
47761;BME280;33524;55.434;38.520;2023-01-27T08:33:52;100730.12;;;-2.77;83.39
47761;BME280;33524;55.434;38.520;2023-01-27T08:36:22;100701.34;;;-3.09;83.19
47761;BME280;33524;55.434;38.520;2023-01-27T08:38:55;100719.28;;;-3.02;83.91
47761;BME280;33524;55.434;38.520;2023-01-27T08:41:25;100723.25;;;-2.74;83.69
47761;BME280;33524;55.434;38.520;2023-01-27T08:43:58;100725.34;;;-3.07;84.13
47761;BME280;33524;55.434;38.520;2023-01-27T08:46:29;100727.56;;;-2.77;83.38
47761;BME280;33524;55.434;38.520;2023-01-27T08:49:02;100721.72;;;-2.90;83.57
47761;BME280;33524;55.434;38.520;2023-01-27T08:51:33;100727.78;;;-2.94;84.03
47761;BME280;33524;55.434;38.520;2023-01-27T08:54:05;100734.09;;;-3.23;84.71
47761;BME280;33524;55.434;38.520;2023-01-27T08:56:35;100726.16;;;-3.01;84.61
47761;BME280;33524;55.434;38.520;2023-01-27T08:59:04;100732.44;;;-3.29;85.69
47761;BME280;33524;55.434;38.520;2023-01-27T09:01:32;100732.00;;;-2.87;84.68
47761;BME280;33524;55.434;38.520;2023-01-27T09:04:02;100730.12;;;-2.77;84.46
47761;BME280;33524;55.434;38.520;2023-01-27T09:06:36;100737.28;;;-2.99;84.33
47761;BME280;33524;55.434;38.520;2023-01-27T09:09:05;100730.94;;;-2.72;84.15
47761;BME280;33524;55.434;38.520;2023-01-27T09:11:41;100732.69;;;-2.76;84.12
47761;BME280;33524;55.434;38.520;2023-01-27T09:14:11;100729.28;;;-2.78;83.81
47761;BME280;33524;55.434;38.520;2023-01-27T09:16:43;100724.75;;;-2.59;83.39
47761;BME280;33524;55.434;38.520;2023-01-27T09:19:15;100712.03;;;-2.68;83.31
47761;BME280;33524;55.434;38.520;2023-01-27T09:21:45;100730.62;;;-2.48;83.22
47761;BME280;33524;55.434;38.520;2023-01-27T09:24:15;100734.22;;;-2.61;83.87
47761;BME280;33524;55.434;38.520;2023-01-27T09:26:48;100735.19;;;-2.70;83.39
47761;BME280;33524;55.434;38.520;2023-01-27T09:29:19;100731.94;;;-2.84;84.52
47761;BME280;33524;55.434;38.520;2023-01-27T09:31:49;100737.47;;;-3.18;84.81
47761;BME280;33524;55.434;38.520;2023-01-27T09:34:25;100740.91;;;-3.19;85.15
47761;BME280;33524;55.434;38.520;2023-01-27T09:37:02;100733.06;;;-3.08;85.98
47761;BME280;33524;55.434;38.520;2023-01-27T09:39:41;100732.09;;;-2.98;85.60
47761;BME280;33524;55.434;38.520;2023-01-27T09:42:31;100737.31;;;-3.02;85.63
47761;BME280;33524;55.434;38.520;2023-01-27T09:45:29;100726.53;;;-2.62;84.68
47761;BME280;33524;55.434;38.520;2023-01-27T09:56:21;100723.38;;;-2.86;85.89
47761;BME280;33524;55.434;38.520;2023-01-27T09:59:25;100719.69;;;-2.64;85.34
47761;BME280;33524;55.434;38.520;2023-01-27T10:01:57;100696.59;;;-2.71;85.22
47761;BME280;33524;55.434;38.520;2023-01-27T10:04:51;100724.63;;;-2.48;85.25
47761;BME280;33524;55.434;38.520;2023-01-27T10:07:44;100720.09;;;-2.32;84.69
47761;BME280;33524;55.434;38.520;2023-01-27T10:13:24;100717.47;;;-2.28;84.28
47761;BME280;33524;55.434;38.520;2023-01-27T10:19:20;100715.97;;;-1.85;82.23
47761;BME280;33524;55.434;38.520;2023-01-27T10:27:22;100721.09;;;-2.41;84.62
47761;BME280;33524;55.434;38.520;2023-01-27T10:30:07;100702.19;;;-2.40;84.86
47761;BME280;33524;55.434;38.520;2023-01-27T10:33:19;100713.78;;;-2.72;86.15
47761;BME280;33524;55.434;38.520;2023-01-27T10:35:57;100702.53;;;-2.65;86.29
47761;BME280;33524;55.434;38.520;2023-01-27T10:38:47;100718.75;;;-2.58;86.39
47761;BME280;33524;55.434;38.520;2023-01-27T10:50:39;100710.06;;;-2.52;86.24
47761;BME280;33524;55.434;38.520;2023-01-27T10:56:29;100722.69;;;-2.34;85.87
47761;BME280;33524;55.434;38.520;2023-01-27T11:02:30;100715.88;;;-2.38;85.84
47761;BME280;33524;55.434;38.520;2023-01-27T11:05:08;100719.50;;;-2.50;86.54
47761;BME280;33524;55.434;38.520;2023-01-27T11:08:05;100725.50;;;-2.51;86.17
47761;BME280;33524;55.434;38.520;2023-01-27T11:10:43;100721.41;;;-2.62;86.59
47761;BME280;33524;55.434;38.520;2023-01-27T11:13:38;100728.47;;;-2.80;87.43
47761;BME280;33524;55.434;38.520;2023-01-27T11:16:16;100732.41;;;-2.51;86.72
47761;BME280;33524;55.434;38.520;2023-01-27T11:18:58;100728.63;;;-2.94;88.49
47761;BME280;33524;55.434;38.520;2023-01-27T11:21:30;100724.19;;;-2.81;87.97
47761;BME280;33524;55.434;38.520;2023-01-27T11:24:54;100727.22;;;-2.50;87.29
47761;BME280;33524;55.434;38.520;2023-01-27T11:29:57;100729.22;;;-2.73;87.83
47761;BME280;33524;55.434;38.520;2023-01-27T11:35:23;100725.78;;;-2.71;87.61
47761;BME280;33524;55.434;38.520;2023-01-27T11:37:54;100737.16;;;-2.87;88.21
47761;BME280;33524;55.434;38.520;2023-01-27T11:40:43;100737.06;;;-2.81;88.43
47761;BME280;33524;55.434;38.520;2023-01-27T11:43:23;100738.87;;;-2.89;89.07
47761;BME280;33524;55.434;38.520;2023-01-27T11:46:05;100747.44;;;-2.87;88.89
47761;BME280;33524;55.434;38.520;2023-01-27T11:48:43;100737.22;;;-2.96;88.96
47761;BME280;33524;55.434;38.520;2023-01-27T11:51:24;100756.06;;;-2.93;89.30
47761;BME280;33524;55.434;38.520;2023-01-27T11:54:26;100747.31;;;-2.79;89.24
47761;BME280;33524;55.434;38.520;2023-01-27T11:57:02;100756.84;;;-2.83;89.33
47761;BME280;33524;55.434;38.520;2023-01-27T11:59:37;100740.34;;;-2.67;88.75
47761;BME280;33524;55.434;38.520;2023-01-27T12:05:26;100745.47;;;-2.67;88.80
47761;BME280;33524;55.434;38.520;2023-01-27T12:08:01;100728.59;;;-2.92;89.21
47761;BME280;33524;55.434;38.520;2023-01-27T12:10:40;100744.44;;;-2.53;88.46
47761;BME280;33524;55.434;38.520;2023-01-27T12:13:19;100751.75;;;-2.91;89.73
47761;BME280;33524;55.434;38.520;2023-01-27T12:15:52;100750.22;;;-3.06;90.63
47761;BME280;33524;55.434;38.520;2023-01-27T12:18:26;100747.72;;;-3.13;90.96
47761;BME280;33524;55.434;38.520;2023-01-27T12:21:08;100755.19;;;-2.92;90.53
47761;BME280;33524;55.434;38.520;2023-01-27T12:23:54;100746.75;;;-3.01;91.09
47761;BME280;33524;55.434;38.520;2023-01-27T12:26:32;100735.28;;;-2.76;89.49
47761;BME280;33524;55.434;38.520;2023-01-27T12:29:21;100752.59;;;-2.90;90.33
47761;BME280;33524;55.434;38.520;2023-01-27T12:31:56;100756.00;;;-2.85;90.30
47761;BME280;33524;55.434;38.520;2023-01-27T12:34:35;100757.69;;;-2.84;89.93
47761;BME280;33524;55.434;38.520;2023-01-27T12:37:23;100751.00;;;-2.99;90.24
47761;BME280;33524;55.434;38.520;2023-01-27T12:40:17;100745.56;;;-2.73;89.24
47761;BME280;33524;55.434;38.520;2023-01-27T12:43:13;100747.22;;;-2.69;89.34
47761;BME280;33524;55.434;38.520;2023-01-27T12:48:51;100743.00;;;-2.76;89.07
47761;BME280;33524;55.434;38.520;2023-01-27T12:51:54;100739.59;;;-2.76;88.97
47761;BME280;33524;55.434;38.520;2023-01-27T12:54:28;100762.94;;;-2.93;90.42
47761;BME280;33524;55.434;38.520;2023-01-27T12:57:22;100759.28;;;-2.74;89.68
47761;BME280;33524;55.434;38.520;2023-01-27T12:59:58;100768.87;;;-2.85;89.99
47761;BME280;33524;55.434;38.520;2023-01-27T13:02:32;100758.59;;;-2.87;90.03
47761;BME280;33524;55.434;38.520;2023-01-27T13:05:05;100765.53;;;-2.93;90.03
47761;BME280;33524;55.434;38.520;2023-01-27T13:07:45;100768.03;;;-2.90;90.34
47761;BME280;33524;55.434;38.520;2023-01-27T13:10:21;100764.84;;;-3.12;90.93
47761;BME280;33524;55.434;38.520;2023-01-27T13:12:56;100767.28;;;-2.98;90.72
47761;BME280;33524;55.434;38.520;2023-01-27T13:15:30;100769.06;;;-3.03;90.81
47761;BME280;33524;55.434;38.520;2023-01-27T13:18:12;100767.41;;;-3.11;91.44
47761;BME280;33524;55.434;38.520;2023-01-27T13:21:17;100773.25;;;-2.96;90.81
47761;BME280;33524;55.434;38.520;2023-01-27T13:23:50;100770.88;;;-3.12;91.19
47761;BME280;33524;55.434;38.520;2023-01-27T13:26:32;100765.59;;;-2.99;91.08
47761;BME280;33524;55.434;38.520;2023-01-27T13:37:09;100762.94;;;-2.93;90.77
47761;BME280;33524;55.434;38.520;2023-01-27T13:39:49;100766.28;;;-2.85;90.47
47761;BME280;33524;55.434;38.520;2023-01-27T13:48:53;100780.19;;;-3.03;91.08
47761;BME280;33524;55.434;38.520;2023-01-27T13:51:28;100781.38;;;-3.35;92.66
47761;BME280;33524;55.434;38.520;2023-01-27T13:54:01;100780.56;;;-3.40;93.76
47761;BME280;33524;55.434;38.520;2023-01-27T14:02:49;100780.50;;;-3.31;93.64
47761;BME280;33524;55.434;38.520;2023-01-27T14:13:33;100805.25;;;-3.22;93.86
47761;BME280;33524;55.434;38.520;2023-01-27T14:22:23;100791.41;;;-3.09;92.95
47761;BME280;33524;55.434;38.520;2023-01-27T14:25:19;100805.31;;;-3.30;94.59
47761;BME280;33524;55.434;38.520;2023-01-27T14:28:26;100809.63;;;-3.30;95.36
47761;BME280;33524;55.434;38.520;2023-01-27T14:31:13;100806.06;;;-3.15;95.00
47761;BME280;33524;55.434;38.520;2023-01-27T14:39:39;100824.13;;;-3.20;95.22
47761;BME280;33524;55.434;38.520;2023-01-27T14:53:43;100829.22;;;-3.15;95.16
47761;BME280;33524;55.434;38.520;2023-01-27T14:56:34;100828.47;;;-3.28;96.24
47761;BME280;33524;55.434;38.520;2023-01-27T14:59:56;100827.47;;;-3.13;95.57